Share

Bonaire, Bonaire

7:24 AM AST on April 24, 2014 (GMT -0400)
Belnem - Sabal Palm area (IBONAIRE7) Elev 19 ft | 12.12 °N, 68.28 °W | Change Station

Current weather conditions updated 4 seconds ago

Scattered Clouds
Scattered Clouds
83.5 °F
Feels Like 91 °F
N
10.1
Wind Variable Wind from ESE
Gusts 22.8 mph
Sunrise 6:16 AM
Sunset 6:46 PM
Moon Waning Crescent

Today is forecast to be Much Cooler than yesterday.

Pressure 29.92 in
Visibility 6.2 miles
Clouds Few 1600 ft
Scattered Clouds 5000 ft
Heat Index 91 °F
Dew Point 74 °F
Humidity 74%
Rainfall 0.00 in
Snow Depth Not available.
UV 0 out of 16
Pollen Not available.
Air Quality Not available.
Flu Activity Not available.
METAR TNCC 241100Z 10013KT 9999 FEW016 SCT050 27/24 Q1013 NOSIG

More Conditions Fewer Conditions

Pressure 29.92 in
Visibility 6.2 miles
Clouds Few 1600 ft
Scattered Clouds 5000 ft
Heat Index 91 °F
Dew Point 74 °F
Humidity 74%
Rainfall 0.00 in
Snow Depth Not available.
UV 0 out of 16
Pollen Not available.
Air Quality Not available.
Flu Activity Not available.
METAR TNCC 241100Z 10013KT 9999 FEW016 SCT050 27/24 Q1013 NOSIG

More Conditions Fewer Conditions

10-Day Weather Forecast

Almanac

Astronomy

Apr. 24, 2014 Rise Set
Actual Time 6:16 AM AST 6:46 PM AST
Civil Twilight 5:54 AM AST 7:07 PM AST
Nautical Twilight 5:29 AM AST 7:33 PM AST
Astronomical Twilight 5:03 AM AST 7:59 PM AST
Moon 2:32 AM AST 2:45 PM AST
Length of Visible Light 13h 13m
Length of Day
12h 29m
Tomorrow will be 0m 37s longer.
Waning Crescent, 26% of the Moon is Illuminated
Today
Waning Crescent
Apr 29
New
May 6
First Quarter
May 14
Full
May 21
Last Quarter

Yesterday's Extremes

Country Highs Country Lows

Community

  • Stacked
    Stacked
  • clouds approaching Red Sox Nation
    clouds approaching Red Sox Nation
  • Balance
    Balance
  • Nestled In
    Nestled In
  • Stunning Sunrise
    Stunning Sunrise

WunderPhotos

Upload Photos

1,704,584 photos uploaded!

WunderBlogs® & News

Nearby

Snow Depth

Not available.

Coastal Water Temperatures

Place Temperature
No Stations Reporting

Earthquake Activity

City Distance Mag. Time & Date
No recent earthquake activity has been reported nearby.
Minimum magnitude displayed is 2.5.

Nearby Weather Stations

Station Location Temp. Heat Index Dew Point Humidity Wind Precip. Elev Updated Type
Belnem - Sabal Palm area, Kralendijk 83.5 °F 91 °F 74 °F 74% ESE  at  10.1 mph 0.00 in / hr 19 ft 7:24 AM AST Rapid Fire

Show More Stations Show Fewer Stations

What do you think?

We're not finished. Please let us know what you like, what you don't like, and what you are still missing.